sensor_id;sensor_type;location;lat;lon;timestamp;temperature;humidity
62991;DHT22;49084;48.204;16.202;2023-03-05T00:01:24;2.60;99.90
62991;DHT22;49084;48.204;16.202;2023-03-05T00:03:52;2.60;99.90
62991;DHT22;49084;48.204;16.202;2023-03-05T00:06:19;2.60;99.90
62991;DHT22;49084;48.204;16.202;2023-03-05T00:08:46;2.60;99.90
62991;DHT22;49084;48.204;16.202;2023-03-05T00:11:12;2.60;99.90
62991;DHT22;49084;48.204;16.202;2023-03-05T00:13:38;2.60;99.90
62991;DHT22;49084;48.204;16.202;2023-03-05T00:16:05;2.60;99.90
62991;DHT22;49084;48.204;16.202;2023-03-05T00:18:31;2.60;99.90
62991;DHT22;49084;48.204;16.202;2023-03-05T00:20:57;2.60;99.90
62991;DHT22;49084;48.204;16.202;2023-03-05T00:23:23;2.60;99.90
62991;DHT22;49084;48.204;16.202;2023-03-05T00:25:49;2.60;99.90
62991;DHT22;49084;48.204;16.202;2023-03-05T00:28:15;2.60;99.90
62991;DHT22;49084;48.204;16.202;2023-03-05T00:30:40;2.60;99.90
62991;DHT22;49084;48.204;16.202;2023-03-05T00:33:07;2.60;99.90
62991;DHT22;49084;48.204;16.202;2023-03-05T00:35:41;2.60;99.90
62991;DHT22;49084;48.204;16.202;2023-03-05T00:38:08;2.60;99.90
62991;DHT22;49084;48.204;16.202;2023-03-05T00:40:36;2.60;99.90
62991;DHT22;49084;48.204;16.202;2023-03-05T00:43:02;2.60;99.90
62991;DHT22;49084;48.204;16.202;2023-03-05T00:45:28;2.60;99.90
62991;DHT22;49084;48.204;16.202;2023-03-05T00:47:54;2.60;99.90
62991;DHT22;49084;48.204;16.202;2023-03-05T00:50:19;2.60;99.90
62991;DHT22;49084;48.204;16.202;2023-03-05T00:52:45;2.60;99.90
62991;DHT22;49084;48.204;16.202;2023-03-05T00:55:11;2.60;99.90
62991;DHT22;49084;48.204;16.202;2023-03-05T00:57:36;2.60;99.90
62991;DHT22;49084;48.204;16.202;2023-03-05T01:00:04;2.60;99.90
62991;DHT22;49084;48.204;16.202;2023-03-05T01:02:30;2.60;99.90
62991;DHT22;49084;48.204;16.202;2023-03-05T01:04:55;2.60;99.90
62991;DHT22;49084;48.204;16.202;2023-03-05T01:07:21;2.70;99.90
62991;DHT22;49084;48.204;16.202;2023-03-05T01:09:46;2.60;99.90
62991;DHT22;49084;48.204;16.202;2023-03-05T01:12:12;2.60;99.90
62991;DHT22;49084;48.204;16.202;2023-03-05T01:14:38;2.70;99.90
62991;DHT22;49084;48.204;16.202;2023-03-05T01:17:03;2.60;99.90
62991;DHT22;49084;48.204;16.202;2023-03-05T01:19:29;2.60;99.90
62991;DHT22;49084;48.204;16.202;2023-03-05T01:21:55;2.60;99.90
62991;DHT22;49084;48.204;16.202;2023-03-05T01:24:21;2.60;99.90
62991;DHT22;49084;48.204;16.202;2023-03-05T01:26:46;2.60;99.90
62991;DHT22;49084;48.204;16.202;2023-03-05T01:29:14;2.60;99.90
62991;DHT22;49084;48.204;16.202;2023-03-05T01:31:39;2.60;99.90
62991;DHT22;49084;48.204;16.202;2023-03-05T01:34:05;2.60;99.90
62991;DHT22;49084;48.204;16.202;2023-03-05T01:36:31;2.70;99.90
62991;DHT22;49084;48.204;16.202;2023-03-05T01:38:57;2.60;99.90
62991;DHT22;49084;48.204;16.202;2023-03-05T01:41:23;2.60;99.90
62991;DHT22;49084;48.204;16.202;2023-03-05T01:43:49;2.70;99.90
62991;DHT22;49084;48.204;16.202;2023-03-05T01:51:22;2.70;99.90
62991;DHT22;49084;48.204;16.202;2023-03-05T01:53:50;2.70;99.90
62991;DHT22;49084;48.204;16.202;2023-03-05T01:56:16;2.70;99.90
62991;DHT22;49084;48.204;16.202;2023-03-05T01:58:43;2.70;99.90
62991;DHT22;49084;48.204;16.202;2023-03-05T02:01:09;2.70;99.90
62991;DHT22;49084;48.204;16.202;2023-03-05T02:03:36;2.70;99.90
62991;DHT22;49084;48.204;16.202;2023-03-05T02:06:02;2.70;99.90
62991;DHT22;49084;48.204;16.202;2023-03-05T02:08:28;2.70;99.90
62991;DHT22;49084;48.204;16.202;2023-03-05T02:10:55;2.70;99.90
62991;DHT22;49084;48.204;16.202;2023-03-05T02:13:33;2.70;99.90
62991;DHT22;49084;48.204;16.202;2023-03-05T02:16:00;2.60;99.90
62991;DHT22;49084;48.204;16.202;2023-03-05T02:18:27;2.60;99.90
62991;DHT22;49084;48.204;16.202;2023-03-05T02:23:24;2.50;99.90
62991;DHT22;49084;48.204;16.202;2023-03-05T02:25:50;2.50;99.90
62991;DHT22;49084;48.204;16.202;2023-03-05T02:28:40;2.50;99.90
62991;DHT22;49084;48.204;16.202;2023-03-05T02:31:09;2.60;99.90
62991;DHT22;49084;48.204;16.202;2023-03-05T02:33:35;2.60;99.90
62991;DHT22;49084;48.204;16.202;2023-03-05T02:36:01;2.60;99.90
62991;DHT22;49084;48.204;16.202;2023-03-05T02:38:26;2.60;99.90
62991;DHT22;49084;48.204;16.202;2023-03-05T02:40:52;2.60;99.90
62991;DHT22;49084;48.204;16.202;2023-03-05T02:43:18;2.60;99.90
62991;DHT22;49084;48.204;16.202;2023-03-05T02:45:44;2.60;99.90
62991;DHT22;49084;48.204;16.202;2023-03-05T02:48:09;2.70;99.90
62991;DHT22;49084;48.204;16.202;2023-03-05T02:50:35;2.70;99.90
62991;DHT22;49084;48.204;16.202;2023-03-05T02:53:01;2.60;99.90
62991;DHT22;49084;48.204;16.202;2023-03-05T02:55:27;2.70;99.90
62991;DHT22;49084;48.204;16.202;2023-03-05T02:57:52;2.70;99.90
62991;DHT22;49084;48.204;16.202;2023-03-05T03:00:18;2.70;99.90
62991;DHT22;49084;48.204;16.202;2023-03-05T03:02:44;2.70;99.90
62991;DHT22;49084;48.204;16.202;2023-03-05T03:05:10;2.70;99.90
62991;DHT22;49084;48.204;16.202;2023-03-05T03:07:35;2.70;99.90
62991;DHT22;49084;48.204;16.202;2023-03-05T03:10:04;2.70;99.90
62991;DHT22;49084;48.204;16.202;2023-03-05T03:12:30;2.70;99.90
62991;DHT22;49084;48.204;16.202;2023-03-05T03:14:56;2.70;99.90
62991;DHT22;49084;48.204;16.202;2023-03-05T03:17:21;2.70;99.90
62991;DHT22;49084;48.204;16.202;2023-03-05T03:19:47;2.80;99.90
62991;DHT22;49084;48.204;16.202;2023-03-05T03:22:14;2.80;99.90
62991;DHT22;49084;48.204;16.202;2023-03-05T03:24:41;2.70;99.90
62991;DHT22;49084;48.204;16.202;2023-03-05T03:27:07;2.80;99.90
62991;DHT22;49084;48.204;16.202;2023-03-05T03:29:33;2.80;99.90
62991;DHT22;49084;48.204;16.202;2023-03-05T03:31:59;2.80;99.90
62991;DHT22;49084;48.204;16.202;2023-03-05T03:34:24;2.80;99.90
62991;DHT22;49084;48.204;16.202;2023-03-05T03:36:51;2.80;99.90
62991;DHT22;49084;48.204;16.202;2023-03-05T03:39:20;2.80;99.90
62991;DHT22;49084;48.204;16.202;2023-03-05T03:41:48;2.80;99.90
62991;DHT22;49084;48.204;16.202;2023-03-05T03:44:15;2.70;99.90
62991;DHT22;49084;48.204;16.202;2023-03-05T03:46:42;2.80;99.90
62991;DHT22;49084;48.204;16.202;2023-03-05T03:49:14;2.80;99.90
62991;DHT22;49084;48.204;16.202;2023-03-05T03:51:40;2.80;99.90
62991;DHT22;49084;48.204;16.202;2023-03-05T03:54:05;2.70;99.90
62991;DHT22;49084;48.204;16.202;2023-03-05T03:56:31;2.80;99.90
62991;DHT22;49084;48.204;16.202;2023-03-05T03:58:57;2.70;99.90
62991;DHT22;49084;48.204;16.202;2023-03-05T04:01:22;2.80;99.90
62991;DHT22;49084;48.204;16.202;2023-03-05T04:03:48;2.80;99.90
62991;DHT22;49084;48.204;16.202;2023-03-05T04:06:14;2.80;99.90
62991;DHT22;49084;48.204;16.202;2023-03-05T04:08:40;2.80;99.90
62991;DHT22;49084;48.204;16.202;2023-03-05T04:11:06;2.80;99.90
62991;DHT22;49084;48.204;16.202;2023-03-05T04:13:32;2.80;99.90
62991;DHT22;49084;48.204;16.202;2023-03-05T04:15:57;2.80;99.90
62991;DHT22;49084;48.204;16.202;2023-03-05T04:18:23;2.80;99.90
62991;DHT22;49084;48.204;16.202;2023-03-05T04:20:49;2.80;99.90
62991;DHT22;49084;48.204;16.202;2023-03-05T04:23:15;2.80;99.90
62991;DHT22;49084;48.204;16.202;2023-03-05T04:25:41;2.80;99.90
62991;DHT22;49084;48.204;16.202;2023-03-05T04:28:07;2.80;99.90
62991;DHT22;49084;48.204;16.202;2023-03-05T04:30:32;2.80;99.90
62991;DHT22;49084;48.204;16.202;2023-03-05T04:32:58;2.80;99.90
62991;DHT22;49084;48.204;16.202;2023-03-05T04:35:24;2.80;99.90
62991;DHT22;49084;48.204;16.202;2023-03-05T04:37:50;2.70;99.90
62991;DHT22;49084;48.204;16.202;2023-03-05T04:40:16;2.70;99.90
62991;DHT22;49084;48.204;16.202;2023-03-05T04:42:42;2.70;99.90
62991;DHT22;49084;48.204;16.202;2023-03-05T04:45:08;2.70;99.90
62991;DHT22;49084;48.204;16.202;2023-03-05T04:47:35;2.70;99.90
62991;DHT22;49084;48.204;16.202;2023-03-05T04:50:01;2.70;99.90
62991;DHT22;49084;48.204;16.202;2023-03-05T04:52:28;2.70;99.90
62991;DHT22;49084;48.204;16.202;2023-03-05T04:54:53;2.80;99.90
62991;DHT22;49084;48.204;16.202;2023-03-05T04:57:19;2.80;99.90
62991;DHT22;49084;48.204;16.202;2023-03-05T04:59:45;2.70;99.90
62991;DHT22;49084;48.204;16.202;2023-03-05T05:02:10;2.70;99.90
62991;DHT22;49084;48.204;16.202;2023-03-05T05:04:36;2.70;99.90
62991;DHT22;49084;48.204;16.202;2023-03-05T05:07:02;2.70;99.90
62991;DHT22;49084;48.204;16.202;2023-03-05T05:09:29;2.70;99.90
62991;DHT22;49084;48.204;16.202;2023-03-05T05:11:55;2.80;99.90
62991;DHT22;49084;48.204;16.202;2023-03-05T05:14:20;2.80;99.90
62991;DHT22;49084;48.204;16.202;2023-03-05T05:16:46;2.70;99.90
62991;DHT22;49084;48.204;16.202;2023-03-05T05:19:12;2.70;99.90
62991;DHT22;49084;48.204;16.202;2023-03-05T05:21:37;2.70;99.90
62991;DHT22;49084;48.204;16.202;2023-03-05T05:24:03;2.70;99.90
62991;DHT22;49084;48.204;16.202;2023-03-05T05:26:29;2.70;99.90
62991;DHT22;49084;48.204;16.202;2023-03-05T05:28:55;2.70;99.90
62991;DHT22;49084;48.204;16.202;2023-03-05T05:31:21;2.70;99.90
62991;DHT22;49084;48.204;16.202;2023-03-05T05:33:46;2.70;99.90
62991;DHT22;49084;48.204;16.202;2023-03-05T05:36:14;2.80;99.90
62991;DHT22;49084;48.204;16.202;2023-03-05T05:38:41;2.70;99.90
62991;DHT22;49084;48.204;16.202;2023-03-05T05:41:15;2.80;99.90
62991;DHT22;49084;48.204;16.202;2023-03-05T05:43:41;2.80;99.90
62991;DHT22;49084;48.204;16.202;2023-03-05T05:46:10;2.80;99.90
62991;DHT22;49084;48.204;16.202;2023-03-05T05:48:37;2.80;99.90
62991;DHT22;49084;48.204;16.202;2023-03-05T05:51:08;2.80;99.90
62991;DHT22;49084;48.204;16.202;2023-03-05T05:53:35;2.80;99.90
62991;DHT22;49084;48.204;16.202;2023-03-05T05:56:06;2.80;99.90
62991;DHT22;49084;48.204;16.202;2023-03-05T05:58:32;2.80;99.90
62991;DHT22;49084;48.204;16.202;2023-03-05T06:00:58;2.90;99.90
62991;DHT22;49084;48.204;16.202;2023-03-05T06:03:24;2.90;99.90
62991;DHT22;49084;48.204;16.202;2023-03-05T06:05:49;2.90;99.90
62991;DHT22;49084;48.204;16.202;2023-03-05T06:08:16;2.90;99.90
62991;DHT22;49084;48.204;16.202;2023-03-05T06:10:42;2.90;99.90
62991;DHT22;49084;48.204;16.202;2023-03-05T06:13:08;2.90;99.90
62991;DHT22;49084;48.204;16.202;2023-03-05T06:15:34;2.90;99.90
62991;DHT22;49084;48.204;16.202;2023-03-05T06:17:59;2.90;99.90
62991;DHT22;49084;48.204;16.202;2023-03-05T06:20:26;3.00;99.90
62991;DHT22;49084;48.204;16.202;2023-03-05T06:22:53;3.00;99.90
62991;DHT22;49084;48.204;16.202;2023-03-05T06:25:18;3.00;99.90
62991;DHT22;49084;48.204;16.202;2023-03-05T06:27:44;3.00;99.90
62991;DHT22;49084;48.204;16.202;2023-03-05T06:30:11;3.00;99.90
62991;DHT22;49084;48.204;16.202;2023-03-05T06:32:37;2.90;99.90
62991;DHT22;49084;48.204;16.202;2023-03-05T06:35:03;2.90;99.90
62991;DHT22;49084;48.204;16.202;2023-03-05T06:37:29;2.90;99.90
62991;DHT22;49084;48.204;16.202;2023-03-05T06:39:54;2.90;99.90
62991;DHT22;49084;48.204;16.202;2023-03-05T06:42:20;2.90;99.90
62991;DHT22;49084;48.204;16.202;2023-03-05T06:44:46;2.90;99.90
62991;DHT22;49084;48.204;16.202;2023-03-05T06:47:11;2.90;99.90
62991;DHT22;49084;48.204;16.202;2023-03-05T06:49:39;2.90;99.90
62991;DHT22;49084;48.204;16.202;2023-03-05T06:52:05;2.90;99.90
62991;DHT22;49084;48.204;16.202;2023-03-05T06:54:31;2.90;99.90
62991;DHT22;49084;48.204;16.202;2023-03-05T06:56:57;2.80;99.90
62991;DHT22;49084;48.204;16.202;2023-03-05T06:59:23;2.80;99.90
62991;DHT22;49084;48.204;16.202;2023-03-05T07:01:48;2.90;99.90
62991;DHT22;49084;48.204;16.202;2023-03-05T07:04:15;2.90;99.90
62991;DHT22;49084;48.204;16.202;2023-03-05T07:06:41;2.90;99.90
62991;DHT22;49084;48.204;16.202;2023-03-05T07:09:10;2.90;99.90
62991;DHT22;49084;48.204;16.202;2023-03-05T07:11:37;2.90;99.90
62991;DHT22;49084;48.204;16.202;2023-03-05T07:14:03;2.90;99.90
62991;DHT22;49084;48.204;16.202;2023-03-05T07:16:31;2.90;99.90
62991;DHT22;49084;48.204;16.202;2023-03-05T07:18:58;3.00;99.90
62991;DHT22;49084;48.204;16.202;2023-03-05T07:21:27;3.20;99.90
62991;DHT22;49084;48.204;16.202;2023-03-05T07:23:57;3.30;99.90
62991;DHT22;49084;48.204;16.202;2023-03-05T07:26:24;3.20;99.90
62991;DHT22;49084;48.204;16.202;2023-03-05T07:28:50;3.10;99.90
62991;DHT22;49084;48.204;16.202;2023-03-05T07:31:21;3.10;99.90
62991;DHT22;49084;48.204;16.202;2023-03-05T07:33:49;3.10;99.90
62991;DHT22;49084;48.204;16.202;2023-03-05T07:36:15;3.00;99.90
62991;DHT22;49084;48.204;16.202;2023-03-05T07:38:41;3.00;99.90
62991;DHT22;49084;48.204;16.202;2023-03-05T07:41:09;3.00;99.90
62991;DHT22;49084;48.204;16.202;2023-03-05T07:43:36;3.00;99.90
62991;DHT22;49084;48.204;16.202;2023-03-05T07:46:10;3.10;99.90
62991;DHT22;49084;48.204;16.202;2023-03-05T07:48:37;3.10;99.90
62991;DHT22;49084;48.204;16.202;2023-03-05T07:51:05;3.10;99.90
62991;DHT22;49084;48.204;16.202;2023-03-05T07:53:31;3.10;99.90
62991;DHT22;49084;48.204;16.202;2023-03-05T07:55:57;3.20;99.90
62991;DHT22;49084;48.204;16.202;2023-03-05T07:58:23;3.20;99.90
62991;DHT22;49084;48.204;16.202;2023-03-05T08:00:49;3.30;99.90
62991;DHT22;49084;48.204;16.202;2023-03-05T08:03:15;3.30;99.90
62991;DHT22;49084;48.204;16.202;2023-03-05T08:05:41;3.20;99.90
62991;DHT22;49084;48.204;16.202;2023-03-05T08:08:07;3.30;99.90
62991;DHT22;49084;48.204;16.202;2023-03-05T08:10:34;3.30;99.90
62991;DHT22;49084;48.204;16.202;2023-03-05T08:13:00;3.40;99.90
62991;DHT22;49084;48.204;16.202;2023-03-05T08:15:25;3.40;99.90
62991;DHT22;49084;48.204;16.202;2023-03-05T08:17:51;3.40;99.90
62991;DHT22;49084;48.204;16.202;2023-03-05T08:20:17;3.40;99.90
62991;DHT22;49084;48.204;16.202;2023-03-05T08:22:44;3.40;99.90
62991;DHT22;49084;48.204;16.202;2023-03-05T08:25:11;3.50;99.90
62991;DHT22;49084;48.204;16.202;2023-03-05T08:27:38;3.50;99.90
62991;DHT22;49084;48.204;16.202;2023-03-05T08:30:05;3.50;99.90
62991;DHT22;49084;48.204;16.202;2023-03-05T08:32:31;3.50;99.90
62991;DHT22;49084;48.204;16.202;2023-03-05T08:34:57;3.60;99.90
62991;DHT22;49084;48.204;16.202;2023-03-05T08:37:23;3.60;99.90
62991;DHT22;49084;48.204;16.202;2023-03-05T08:39:49;3.70;99.90
62991;DHT22;49084;48.204;16.202;2023-03-05T08:42:15;3.60;99.90
62991;DHT22;49084;48.204;16.202;2023-03-05T08:44:40;3.60;99.90
62991;DHT22;49084;48.204;16.202;2023-03-05T08:47:06;3.60;99.90
62991;DHT22;49084;48.204;16.202;2023-03-05T08:49:32;3.70;99.90
62991;DHT22;49084;48.204;16.202;2023-03-05T08:51:57;3.70;99.90
62991;DHT22;49084;48.204;16.202;2023-03-05T08:54:23;3.80;99.90
62991;DHT22;49084;48.204;16.202;2023-03-05T08:56:49;3.80;99.90
62991;DHT22;49084;48.204;16.202;2023-03-05T08:59:14;3.90;99.90
62991;DHT22;49084;48.204;16.202;2023-03-05T09:01:40;3.90;99.90
62991;DHT22;49084;48.204;16.202;2023-03-05T09:04:06;4.00;99.90
62991;DHT22;49084;48.204;16.202;2023-03-05T09:06:32;4.10;99.90
62991;DHT22;49084;48.204;16.202;2023-03-05T09:08:59;4.20;99.90
62991;DHT22;49084;48.204;16.202;2023-03-05T09:11:24;4.40;99.90
62991;DHT22;49084;48.204;16.202;2023-03-05T09:13:50;4.40;99.90
62991;DHT22;49084;48.204;16.202;2023-03-05T09:16:17;4.50;99.90
62991;DHT22;49084;48.204;16.202;2023-03-05T09:18:43;4.80;99.90
62991;DHT22;49084;48.204;16.202;2023-03-05T09:21:12;4.90;99.90
62991;DHT22;49084;48.204;16.202;2023-03-05T09:23:38;5.10;99.90
62991;DHT22;49084;48.204;16.202;2023-03-05T09:26:06;5.10;99.90
62991;DHT22;49084;48.204;16.202;2023-03-05T09:28:32;5.10;99.90
62991;DHT22;49084;48.204;16.202;2023-03-05T09:31:01;5.30;99.90
62991;DHT22;49084;48.204;16.202;2023-03-05T09:33:28;5.30;99.90
62991;DHT22;49084;48.204;16.202;2023-03-05T09:35:54;5.30;99.90
62991;DHT22;49084;48.204;16.202;2023-03-05T09:38:20;5.40;99.90
62991;DHT22;49084;48.204;16.202;2023-03-05T09:41:03;5.90;99.90
62991;DHT22;49084;48.204;16.202;2023-03-05T09:46:42;7.10;99.90
62991;DHT22;49084;48.204;16.202;2023-03-05T09:52:21;6.50;99.90
62991;DHT22;49084;48.204;16.202;2023-03-05T09:54:57;6.70;99.90
62991;DHT22;49084;48.204;16.202;2023-03-05T09:57:44;6.90;99.90
62991;DHT22;49084;48.204;16.202;2023-03-05T10:00:43;7.00;99.90
62991;DHT22;49084;48.204;16.202;2023-03-05T10:08:57;8.00;97.10
62991;DHT22;49084;48.204;16.202;2023-03-05T10:23:19;7.30;98.20
62991;DHT22;49084;48.204;16.202;2023-03-05T10:28:34;6.80;98.20
62991;DHT22;49084;48.204;16.202;2023-03-05T10:31:12;6.60;99.00
62991;DHT22;49084;48.204;16.202;2023-03-05T10:42:23;7.20;97.60
62991;DHT22;49084;48.204;16.202;2023-03-05T10:44:56;7.20;96.90
62991;DHT22;49084;48.204;16.202;2023-03-05T10:50:22;7.80;96.40
62991;DHT22;49084;48.204;16.202;2023-03-05T10:55:29;8.00;94.40
62991;DHT22;49084;48.204;16.202;2023-03-05T10:57:55;7.70;94.00
62991;DHT22;49084;48.204;16.202;2023-03-05T11:00:24;7.30;95.30
62991;DHT22;49084;48.204;16.202;2023-03-05T11:05:59;7.00;96.60
62991;DHT22;49084;48.204;16.202;2023-03-05T11:11:15;7.20;95.80
62991;DHT22;49084;48.204;16.202;2023-03-05T11:14:01;7.30;96.10
62991;DHT22;49084;48.204;16.202;2023-03-05T11:16:31;7.40;95.70
62991;DHT22;49084;48.204;16.202;2023-03-05T11:19:23;7.40;94.80
62991;DHT22;49084;48.204;16.202;2023-03-05T11:24:32;7.40;94.60
62991;DHT22;49084;48.204;16.202;2023-03-05T11:26:58;7.40;94.50
62991;DHT22;49084;48.204;16.202;2023-03-05T11:29:29;7.40;94.70
62991;DHT22;49084;48.204;16.202;2023-03-05T11:32:23;7.70;94.40
62991;DHT22;49084;48.204;16.202;2023-03-05T11:34:50;7.50;93.60
62991;DHT22;49084;48.204;16.202;2023-03-05T11:37:25;6.90;94.60
62991;DHT22;49084;48.204;16.202;2023-03-05T11:42:38;6.70;95.60
62991;DHT22;49084;48.204;16.202;2023-03-05T11:45:04;6.60;95.50
62991;DHT22;49084;48.204;16.202;2023-03-05T11:55:25;6.00;97.10
62991;DHT22;49084;48.204;16.202;2023-03-05T12:00:38;5.80;97.50
62991;DHT22;49084;48.204;16.202;2023-03-05T12:03:19;5.90;97.50
62991;DHT22;49084;48.204;16.202;2023-03-05T12:05:52;5.90;97.40
62991;DHT22;49084;48.204;16.202;2023-03-05T12:08:24;5.90;97.40
62991;DHT22;49084;48.204;16.202;2023-03-05T12:10:52;5.90;97.70
62991;DHT22;49084;48.204;16.202;2023-03-05T12:13:33;5.80;97.90
62991;DHT22;49084;48.204;16.202;2023-03-05T12:23:59;5.50;98.40
62991;DHT22;49084;48.204;16.202;2023-03-05T12:31:58;5.50;98.30
62991;DHT22;49084;48.204;16.202;2023-03-05T12:40:00;5.60;98.40
62991;DHT22;49084;48.204;16.202;2023-03-05T12:50:45;5.60;98.50
62991;DHT22;49084;48.204;16.202;2023-03-05T12:53:19;5.60;98.60
62991;DHT22;49084;48.204;16.202;2023-03-05T12:56:02;5.60;98.50
62991;DHT22;49084;48.204;16.202;2023-03-05T12:58:41;5.60;98.20
62991;DHT22;49084;48.204;16.202;2023-03-05T13:03:54;5.70;98.00
62991;DHT22;49084;48.204;16.202;2023-03-05T13:06:32;5.70;97.70
62991;DHT22;49084;48.204;16.202;2023-03-05T13:09:07;5.70;97.70
62991;DHT22;49084;48.204;16.202;2023-03-05T13:11:35;5.70;97.60
62991;DHT22;49084;48.204;16.202;2023-03-05T13:14:02;5.70;97.80
62991;DHT22;49084;48.204;16.202;2023-03-05T13:16:36;5.60;97.40
62991;DHT22;49084;48.204;16.202;2023-03-05T13:19:02;5.60;96.60
62991;DHT22;49084;48.204;16.202;2023-03-05T13:21:31;5.50;96.50
62991;DHT22;49084;48.204;16.202;2023-03-05T13:23:59;5.50;96.10
62991;DHT22;49084;48.204;16.202;2023-03-05T13:26:27;5.30;95.90
62991;DHT22;49084;48.204;16.202;2023-03-05T13:31:34;5.30;96.60
62991;DHT22;49084;48.204;16.202;2023-03-05T13:34:28;5.30;96.00
62991;DHT22;49084;48.204;16.202;2023-03-05T13:39:34;5.20;95.90
62991;DHT22;49084;48.204;16.202;2023-03-05T13:42:23;5.20;95.90
62991;DHT22;49084;48.204;16.202;2023-03-05T13:44:56;5.30;95.80
62991;DHT22;49084;48.204;16.202;2023-03-05T13:47:26;5.30;95.90
62991;DHT22;49084;48.204;16.202;2023-03-05T13:50:06;5.30;96.30
62991;DHT22;49084;48.204;16.202;2023-03-05T13:52:37;5.30;95.50
62991;DHT22;49084;48.204;16.202;2023-03-05T13:55:13;5.20;95.60
62991;DHT22;49084;48.204;16.202;2023-03-05T13:57:49;5.20;95.60
62991;DHT22;49084;48.204;16.202;2023-03-05T14:00:35;5.20;95.70
62991;DHT22;49084;48.204;16.202;2023-03-05T14:03:17;5.10;95.40
62991;DHT22;49084;48.204;16.202;2023-03-05T14:05:46;5.10;95.40
62991;DHT22;49084;48.204;16.202;2023-03-05T14:08:23;5.10;95.60
62991;DHT22;49084;48.204;16.202;2023-03-05T14:10:56;5.10;95.80
62991;DHT22;49084;48.204;16.202;2023-03-05T14:13:25;5.10;95.80
62991;DHT22;49084;48.204;16.202;2023-03-05T14:16:25;5.10;95.50
62991;DHT22;49084;48.204;16.202;2023-03-05T14:18:58;5.10;95.40
62991;DHT22;49084;48.204;16.202;2023-03-05T14:21:50;5.10;95.70
62991;DHT22;49084;48.204;16.202;2023-03-05T14:24:22;5.00;95.90
62991;DHT22;49084;48.204;16.202;2023-03-05T14:27:14;5.10;95.80
62991;DHT22;49084;48.204;16.202;2023-03-05T14:29:44;5.10;95.90
62991;DHT22;49084;48.204;16.202;2023-03-05T14:32:32;5.10;95.70
62991;DHT22;49084;48.204;16.202;2023-03-05T14:35:01;5.10;95.70
62991;DHT22;49084;48.204;16.202;2023-03-05T14:37:35;5.10;95.50
62991;DHT22;49084;48.204;16.202;2023-03-05T14:40:30;5.20;95.50
62991;DHT22;49084;48.204;16.202;2023-03-05T14:43:09;5.20;94.80
62991;DHT22;49084;48.204;16.202;2023-03-05T14:45:38;5.20;94.60
62991;DHT22;49084;48.204;16.202;2023-03-05T14:48:06;5.20;94.80
62991;DHT22;49084;48.204;16.202;2023-03-05T14:50:40;5.30;94.40
62991;DHT22;49084;48.204;16.202;2023-03-05T14:53:13;5.30;94.50
62991;DHT22;49084;48.204;16.202;2023-03-05T14:55:41;5.30;94.10
62991;DHT22;49084;48.204;16.202;2023-03-05T14:58:13;5.30;93.70
62991;DHT22;49084;48.204;16.202;2023-03-05T15:00:40;5.20;93.80
62991;DHT22;49084;48.204;16.202;2023-03-05T15:03:09;5.20;93.90
62991;DHT22;49084;48.204;16.202;2023-03-05T15:05:36;5.20;93.90
62991;DHT22;49084;48.204;16.202;2023-03-05T15:08:03;5.20;93.80
62991;DHT22;49084;48.204;16.202;2023-03-05T15:10:29;5.10;93.70
62991;DHT22;49084;48.204;16.202;2023-03-05T15:12:55;5.10;94.00
62991;DHT22;49084;48.204;16.202;2023-03-05T15:15:22;5.20;94.10
62991;DHT22;49084;48.204;16.202;2023-03-05T15:17:49;5.10;93.90
62991;DHT22;49084;48.204;16.202;2023-03-05T15:20:22;5.10;94.00
62991;DHT22;49084;48.204;16.202;2023-03-05T15:22:49;5.10;94.10
62991;DHT22;49084;48.204;16.202;2023-03-05T15:25:15;5.10;93.90
62991;DHT22;49084;48.204;16.202;2023-03-05T15:27:44;5.10;93.90
62991;DHT22;49084;48.204;16.202;2023-03-05T15:30:31;5.10;94.20
62991;DHT22;49084;48.204;16.202;2023-03-05T15:33:01;5.10;94.10
62991;DHT22;49084;48.204;16.202;2023-03-05T15:35:27;5.10;94.00
62991;DHT22;49084;48.204;16.202;2023-03-05T15:37:55;5.10;94.20
62991;DHT22;49084;48.204;16.202;2023-03-05T15:40:23;5.10;94.10
62991;DHT22;49084;48.204;16.202;2023-03-05T15:42:49;5.10;94.20
62991;DHT22;49084;48.204;16.202;2023-03-05T15:45:16;5.10;94.30
62991;DHT22;49084;48.204;16.202;2023-03-05T15:47:43;5.10;94.30
62991;DHT22;49084;48.204;16.202;2023-03-05T15:50:09;5.00;94.30
62991;DHT22;49084;48.204;16.202;2023-03-05T15:52:35;5.00;94.40
62991;DHT22;49084;48.204;16.202;2023-03-05T15:55:02;5.00;94.50
62991;DHT22;49084;48.204;16.202;2023-03-05T15:57:28;5.00;94.60
62991;DHT22;49084;48.204;16.202;2023-03-05T15:59:54;5.00;94.60
62991;DHT22;49084;48.204;16.202;2023-03-05T16:02:20;5.00;94.70
62991;DHT22;49084;48.204;16.202;2023-03-05T16:04:47;5.00;94.60
62991;DHT22;49084;48.204;16.202;2023-03-05T16:07:13;5.00;94.60
62991;DHT22;49084;48.204;16.202;2023-03-05T16:09:44;5.00;94.80
62991;DHT22;49084;48.204;16.202;2023-03-05T16:12:15;5.00;94.70
62991;DHT22;49084;48.204;16.202;2023-03-05T16:14:43;5.00;94.80
62991;DHT22;49084;48.204;16.202;2023-03-05T16:17:10;5.00;95.00
62991;DHT22;49084;48.204;16.202;2023-03-05T16:19:39;5.00;95.20
62991;DHT22;49084;48.204;16.202;2023-03-05T16:22:06;5.00;95.00
62991;DHT22;49084;48.204;16.202;2023-03-05T16:24:32;4.90;94.80
62991;DHT22;49084;48.204;16.202;2023-03-05T16:26:58;4.90;94.70
62991;DHT22;49084;48.204;16.202;2023-03-05T16:29:25;4.90;94.80
62991;DHT22;49084;48.204;16.202;2023-03-05T16:31:55;4.90;94.90
62991;DHT22;49084;48.204;16.202;2023-03-05T16:34:21;4.90;94.80
62991;DHT22;49084;48.204;16.202;2023-03-05T16:36:49;4.80;95.10
62991;DHT22;49084;48.204;16.202;2023-03-05T16:39:18;4.80;95.40
62991;DHT22;49084;48.204;16.202;2023-03-05T16:41:44;4.80;95.30
62991;DHT22;49084;48.204;16.202;2023-03-05T16:44:11;4.80;95.20
62991;DHT22;49084;48.204;16.202;2023-03-05T16:46:37;4.80;94.80
62991;DHT22;49084;48.204;16.202;2023-03-05T16:49:09;4.80;95.00
62991;DHT22;49084;48.204;16.202;2023-03-05T16:51:35;4.70;94.90
62991;DHT22;49084;48.204;16.202;2023-03-05T16:54:02;4.70;95.00
62991;DHT22;49084;48.204;16.202;2023-03-05T16:56:28;4.70;95.30
62991;DHT22;49084;48.204;16.202;2023-03-05T16:58:55;4.70;95.40
62991;DHT22;49084;48.204;16.202;2023-03-05T17:01:22;4.70;95.60
62991;DHT22;49084;48.204;16.202;2023-03-05T17:03:49;4.70;96.30
62991;DHT22;49084;48.204;16.202;2023-03-05T17:06:18;4.60;96.20
62991;DHT22;49084;48.204;16.202;2023-03-05T17:08:46;4.60;96.20
62991;DHT22;49084;48.204;16.202;2023-03-05T17:11:12;4.60;96.80
62991;DHT22;49084;48.204;16.202;2023-03-05T17:13:39;4.60;97.10
62991;DHT22;49084;48.204;16.202;2023-03-05T17:16:07;4.50;97.30
62991;DHT22;49084;48.204;16.202;2023-03-05T17:18:33;4.50;96.80
62991;DHT22;49084;48.204;16.202;2023-03-05T17:21:01;4.50;96.60
62991;DHT22;49084;48.204;16.202;2023-03-05T17:23:28;4.50;96.10